sensor_id;sensor_type;location;lat;lon;timestamp;temperature;humidity
25170;DHT22;13129;48.012;10.352;2022-08-18T03:31:50;14.60;99.90
25170;DHT22;13129;48.012;10.352;2022-08-18T03:34:17;14.60;99.90
25170;DHT22;13129;48.012;10.352;2022-08-18T03:36:44;14.50;99.90
25170;DHT22;13129;48.012;10.352;2022-08-18T03:39:11;14.50;99.90
25170;DHT22;13129;48.012;10.352;2022-08-18T03:41:42;14.50;99.90
25170;DHT22;13129;48.012;10.352;2022-08-18T03:44:09;14.60;99.90
25170;DHT22;13129;48.012;10.352;2022-08-18T03:46:35;14.60;99.90
25170;DHT22;13129;48.012;10.352;2022-08-18T03:49:01;14.60;99.90
25170;DHT22;13129;48.012;10.352;2022-08-18T03:51:32;14.60;99.90
25170;DHT22;13129;48.012;10.352;2022-08-18T03:54:00;14.50;99.90
25170;DHT22;13129;48.012;10.352;2022-08-18T03:56:29;14.50;99.90
25170;DHT22;13129;48.012;10.352;2022-08-18T03:59:22;14.50;99.90
25170;DHT22;13129;48.012;10.352;2022-08-18T04:01:46;14.50;99.90
25170;DHT22;13129;48.012;10.352;2022-08-18T04:04:16;14.60;99.90
25170;DHT22;13129;48.012;10.352;2022-08-18T04:06:46;14.60;99.90
25170;DHT22;13129;48.012;10.352;2022-08-18T04:09:16;14.70;99.90
25170;DHT22;13129;48.012;10.352;2022-08-18T04:11:43;14.70;99.90
25170;DHT22;13129;48.012;10.352;2022-08-18T04:14:10;14.70;99.90
25170;DHT22;13129;48.012;10.352;2022-08-18T04:16:37;14.70;99.90
25170;DHT22;13129;48.012;10.352;2022-08-18T04:19:03;14.70;99.90
25170;DHT22;13129;48.012;10.352;2022-08-18T04:21:32;14.80;99.90
25170;DHT22;13129;48.012;10.352;2022-08-18T04:23:59;14.80;99.90
25170;DHT22;13129;48.012;10.352;2022-08-18T04:26:38;14.70;99.90
25170;DHT22;13129;48.012;10.352;2022-08-18T04:29:06;14.80;99.90
25170;DHT22;13129;48.012;10.352;2022-08-18T04:31:32;14.70;99.90
25170;DHT22;13129;48.012;10.352;2022-08-18T04:33:59;14.70;99.90
25170;DHT22;13129;48.012;10.352;2022-08-18T04:36:26;14.70;99.90
25170;DHT22;13129;48.012;10.352;2022-08-18T04:38:52;14.80;99.90
25170;DHT22;13129;48.012;10.352;2022-08-18T04:41:18;14.80;99.90
25170;DHT22;13129;48.012;10.352;2022-08-18T04:43:44;14.80;99.90
25170;DHT22;13129;48.012;10.352;2022-08-18T04:46:10;14.80;99.90
25170;DHT22;13129;48.012;10.352;2022-08-18T04:48:39;14.90;99.90
25170;DHT22;13129;48.012;10.352;2022-08-18T04:51:06;14.90;99.90
25170;DHT22;13129;48.012;10.352;2022-08-18T04:53:34;15.00;99.90
25170;DHT22;13129;48.012;10.352;2022-08-18T04:56:27;15.00;99.90
25170;DHT22;13129;48.012;10.352;2022-08-18T04:58:54;15.00;99.90
25170;DHT22;13129;48.012;10.352;2022-08-18T05:01:22;15.10;99.90
25170;DHT22;13129;48.012;10.352;2022-08-18T05:03:50;15.20;99.90
25170;DHT22;13129;48.012;10.352;2022-08-18T05:06:17;15.20;99.90
25170;DHT22;13129;48.012;10.352;2022-08-18T05:08:44;15.10;99.90
25170;DHT22;13129;48.012;10.352;2022-08-18T05:11:11;15.10;99.90
25170;DHT22;13129;48.012;10.352;2022-08-18T05:13:37;15.10;99.90
25170;DHT22;13129;48.012;10.352;2022-08-18T05:16:02;15.20;99.90
25170;DHT22;13129;48.012;10.352;2022-08-18T05:18:37;15.20;99.90
25170;DHT22;13129;48.012;10.352;2022-08-18T05:21:06;15.20;99.90
25170;DHT22;13129;48.012;10.352;2022-08-18T05:23:35;15.20;99.90
25170;DHT22;13129;48.012;10.352;2022-08-18T05:26:02;15.20;99.90
25170;DHT22;13129;48.012;10.352;2022-08-18T05:28:29;15.20;99.90
25170;DHT22;13129;48.012;10.352;2022-08-18T05:30:55;15.40;99.90
25170;DHT22;13129;48.012;10.352;2022-08-18T05:33:23;15.50;99.90
25170;DHT22;13129;48.012;10.352;2022-08-18T05:35:54;15.60;99.90
25170;DHT22;13129;48.012;10.352;2022-08-18T05:41:11;15.70;99.90
25170;DHT22;13129;48.012;10.352;2022-08-18T05:43:38;15.80;99.90
25170;DHT22;13129;48.012;10.352;2022-08-18T05:46:06;15.80;99.90
25170;DHT22;13129;48.012;10.352;2022-08-18T05:48:33;15.90;99.90
25170;DHT22;13129;48.012;10.352;2022-08-18T05:51:09;15.90;99.90
25170;DHT22;13129;48.012;10.352;2022-08-18T05:53:36;15.80;99.90
25170;DHT22;13129;48.012;10.352;2022-08-18T05:56:24;15.80;99.90
25170;DHT22;13129;48.012;10.352;2022-08-18T05:59:09;15.80;99.90
25170;DHT22;13129;48.012;10.352;2022-08-18T06:01:40;15.90;99.90
25170;DHT22;13129;48.012;10.352;2022-08-18T06:04:51;15.90;99.90
25170;DHT22;13129;48.012;10.352;2022-08-18T06:07:20;15.90;99.90
25170;DHT22;13129;48.012;10.352;2022-08-18T06:09:51;15.90;99.90
25170;DHT22;13129;48.012;10.352;2022-08-18T06:12:27;16.10;99.90
25170;DHT22;13129;48.012;10.352;2022-08-18T06:18:15;16.40;99.90
25170;DHT22;13129;48.012;10.352;2022-08-18T06:28:20;16.80;99.90
25170;DHT22;13129;48.012;10.352;2022-08-18T06:31:00;17.00;99.90
25170;DHT22;13129;48.012;10.352;2022-08-18T06:36:42;17.20;99.90
25170;DHT22;13129;48.012;10.352;2022-08-18T06:39:33;17.30;99.90
25170;DHT22;13129;48.012;10.352;2022-08-18T06:41:59;17.20;99.90
25170;DHT22;13129;48.012;10.352;2022-08-18T06:44:50;17.20;99.90
25170;DHT22;13129;48.012;10.352;2022-08-18T06:47:42;17.30;99.90
25170;DHT22;13129;48.012;10.352;2022-08-18T06:50:19;17.80;99.90
25170;DHT22;13129;48.012;10.352;2022-08-18T06:53:16;18.30;99.90
25170;DHT22;13129;48.012;10.352;2022-08-18T06:55:43;19.10;99.90
25170;DHT22;13129;48.012;10.352;2022-08-18T06:58:20;19.50;99.90
25170;DHT22;13129;48.012;10.352;2022-08-18T07:03:18;19.40;99.90
25170;DHT22;13129;48.012;10.352;2022-08-18T07:08:46;19.00;99.90
25170;DHT22;13129;48.012;10.352;2022-08-18T07:13:45;19.20;99.90
25170;DHT22;13129;48.012;10.352;2022-08-18T07:16:21;19.20;99.90
25170;DHT22;13129;48.012;10.352;2022-08-18T07:18:47;19.20;99.90
25170;DHT22;13129;48.012;10.352;2022-08-18T07:21:27;19.30;99.90
25170;DHT22;13129;48.012;10.352;2022-08-18T07:24:12;19.40;99.90
25170;DHT22;13129;48.012;10.352;2022-08-18T07:27:05;19.40;99.90
25170;DHT22;13129;48.012;10.352;2022-08-18T07:29:35;19.40;99.90
25170;DHT22;13129;48.012;10.352;2022-08-18T07:32:15;19.50;99.90
25170;DHT22;13129;48.012;10.352;2022-08-18T07:34:45;19.50;99.90
25170;DHT22;13129;48.012;10.352;2022-08-18T07:37:43;19.80;99.90
25170;DHT22;13129;48.012;10.352;2022-08-18T07:45:28;24.50;99.90
25170;DHT22;13129;48.012;10.352;2022-08-18T07:48:18;26.10;99.90
25170;DHT22;13129;48.012;10.352;2022-08-18T07:59:03;29.50;99.90
25170;DHT22;13129;48.012;10.352;2022-08-18T08:01:42;30.10;98.80
25170;DHT22;13129;48.012;10.352;2022-08-18T08:06:56;30.80;91.60
25170;DHT22;13129;48.012;10.352;2022-08-18T08:20:28;33.00;74.40
25170;DHT22;13129;48.012;10.352;2022-08-18T08:23:55;34.00;72.50
25170;DHT22;13129;48.012;10.352;2022-08-18T08:31:51;31.50;71.40
25170;DHT22;13129;48.012;10.352;2022-08-18T08:34:38;30.50;75.60
25170;DHT22;13129;48.012;10.352;2022-08-18T08:37:11;29.50;78.90
25170;DHT22;13129;48.012;10.352;2022-08-18T08:39:51;28.30;82.40
25170;DHT22;13129;48.012;10.352;2022-08-18T08:42:36;27.30;86.70
25170;DHT22;13129;48.012;10.352;2022-08-18T08:45:12;26.30;90.20
25170;DHT22;13129;48.012;10.352;2022-08-18T08:50:37;25.60;93.30
25170;DHT22;13129;48.012;10.352;2022-08-18T08:53:13;25.70;94.70
25170;DHT22;13129;48.012;10.352;2022-08-18T08:55:52;25.40;94.20
25170;DHT22;13129;48.012;10.352;2022-08-18T08:58:42;26.00;94.40
25170;DHT22;13129;48.012;10.352;2022-08-18T09:04:16;27.10;92.10
25170;DHT22;13129;48.012;10.352;2022-08-18T09:09:46;27.20;92.20
25170;DHT22;13129;48.012;10.352;2022-08-18T09:21:09;24.90;96.60
25170;DHT22;13129;48.012;10.352;2022-08-18T09:23:07;24.70;98.50
25170;DHT22;13129;48.012;10.352;2022-08-18T09:28:22;24.30;99.90
25170;DHT22;13129;48.012;10.352;2022-08-18T09:39:33;26.90;99.90
25170;DHT22;13129;48.012;10.352;2022-08-18T09:42:40;28.90;95.30
25170;DHT22;13129;48.012;10.352;2022-08-18T09:45:38;30.00;90.30
25170;DHT22;13129;48.012;10.352;2022-08-18T09:48:20;29.90;90.00
25170;DHT22;13129;48.012;10.352;2022-08-18T09:51:19;31.10;86.80
25170;DHT22;13129;48.012;10.352;2022-08-18T09:56:17;32.40;77.40
25170;DHT22;13129;48.012;10.352;2022-08-18T09:58:49;31.70;77.60
25170;DHT22;13129;48.012;10.352;2022-08-18T10:01:19;31.80;77.70
25170;DHT22;13129;48.012;10.352;2022-08-18T10:06:43;32.30;74.90
25170;DHT22;13129;48.012;10.352;2022-08-18T10:09:23;32.70;74.60
25170;DHT22;13129;48.012;10.352;2022-08-18T10:15:12;32.40;73.50
25170;DHT22;13129;48.012;10.352;2022-08-18T10:17:46;31.90;71.30
25170;DHT22;13129;48.012;10.352;2022-08-18T10:20:35;30.80;73.90
25170;DHT22;13129;48.012;10.352;2022-08-18T10:23:04;29.90;77.10
25170;DHT22;13129;48.012;10.352;2022-08-18T10:28:00;31.60;73.30
25170;DHT22;13129;48.012;10.352;2022-08-18T10:32:59;33.60;70.10
25170;DHT22;13129;48.012;10.352;2022-08-18T10:38:26;32.20;70.20
25170;DHT22;13129;48.012;10.352;2022-08-18T10:41:23;31.50;71.10
25170;DHT22;13129;48.012;10.352;2022-08-18T10:43:52;31.10;74.00
25170;DHT22;13129;48.012;10.352;2022-08-18T10:46:25;31.20;74.20
25170;DHT22;13129;48.012;10.352;2022-08-18T10:49:22;31.30;74.10
25170;DHT22;13129;48.012;10.352;2022-08-18T11:05:21;30.50;78.30
25170;DHT22;13129;48.012;10.352;2022-08-18T11:07:52;30.10;78.40
25170;DHT22;13129;48.012;10.352;2022-08-18T11:10:23;29.40;78.30
25170;DHT22;13129;48.012;10.352;2022-08-18T11:18:35;28.10;84.20
25170;DHT22;13129;48.012;10.352;2022-08-18T11:27:03;27.80;82.60
25170;DHT22;13129;48.012;10.352;2022-08-18T11:29:34;27.40;82.20
25170;DHT22;13129;48.012;10.352;2022-08-18T11:42:55;28.30;84.80
25170;DHT22;13129;48.012;10.352;2022-08-18T11:45:32;28.40;84.10
25170;DHT22;13129;48.012;10.352;2022-08-18T11:59:07;26.70;87.90
25170;DHT22;13129;48.012;10.352;2022-08-18T12:14:21;26.90;90.80
25170;DHT22;13129;48.012;10.352;2022-08-18T12:16:48;27.00;90.70
25170;DHT22;13129;48.012;10.352;2022-08-18T12:19:14;26.90;90.60
25170;DHT22;13129;48.012;10.352;2022-08-18T12:21:55;26.70;90.70
25170;DHT22;13129;48.012;10.352;2022-08-18T12:24:27;26.50;91.20
25170;DHT22;13129;48.012;10.352;2022-08-18T12:26:54;26.30;91.80
25170;DHT22;13129;48.012;10.352;2022-08-18T12:29:20;26.00;92.50
25170;DHT22;13129;48.012;10.352;2022-08-18T12:31:48;25.50;93.00
25170;DHT22;13129;48.012;10.352;2022-08-18T12:34:17;25.10;93.70
25170;DHT22;13129;48.012;10.352;2022-08-18T12:36:44;25.00;95.10
25170;DHT22;13129;48.012;10.352;2022-08-18T12:39:10;24.80;94.80
25170;DHT22;13129;48.012;10.352;2022-08-18T12:41:36;24.70;94.70
25170;DHT22;13129;48.012;10.352;2022-08-18T12:44:02;24.50;94.60
25170;DHT22;13129;48.012;10.352;2022-08-18T12:46:28;24.50;95.10
25170;DHT22;13129;48.012;10.352;2022-08-18T12:48:55;24.50;95.50
25170;DHT22;13129;48.012;10.352;2022-08-18T12:51:21;24.60;96.30
25170;DHT22;13129;48.012;10.352;2022-08-18T12:53:47;24.60;97.50
25170;DHT22;13129;48.012;10.352;2022-08-18T12:56:23;24.70;98.10
25170;DHT22;13129;48.012;10.352;2022-08-18T12:58:50;24.90;98.60
25170;DHT22;13129;48.012;10.352;2022-08-18T13:01:17;25.10;98.50
25170;DHT22;13129;48.012;10.352;2022-08-18T13:03:44;25.10;98.10
25170;DHT22;13129;48.012;10.352;2022-08-18T13:06:12;25.20;98.40
25170;DHT22;13129;48.012;10.352;2022-08-18T13:08:38;25.20;98.60
25170;DHT22;13129;48.012;10.352;2022-08-18T13:11:04;25.20;98.90
25170;DHT22;13129;48.012;10.352;2022-08-18T13:13:38;25.10;99.30
25170;DHT22;13129;48.012;10.352;2022-08-18T13:16:06;25.20;99.50
25170;DHT22;13129;48.012;10.352;2022-08-18T13:18:33;25.00;99.90
25170;DHT22;13129;48.012;10.352;2022-08-18T13:20:59;24.90;99.90
25170;DHT22;13129;48.012;10.352;2022-08-18T13:23:26;24.60;99.90
25170;DHT22;13129;48.012;10.352;2022-08-18T13:25:53;24.30;99.90
25170;DHT22;13129;48.012;10.352;2022-08-18T13:28:19;24.10;99.90
25170;DHT22;13129;48.012;10.352;2022-08-18T13:30:44;23.80;99.90
25170;DHT22;13129;48.012;10.352;2022-08-18T13:33:11;23.70;99.90
25170;DHT22;13129;48.012;10.352;2022-08-18T13:35:36;23.50;99.90
25170;DHT22;13129;48.012;10.352;2022-08-18T13:38:02;23.40;99.90
25170;DHT22;13129;48.012;10.352;2022-08-18T13:40:30;23.30;99.90
25170;DHT22;13129;48.012;10.352;2022-08-18T13:42:56;23.30;99.90
25170;DHT22;13129;48.012;10.352;2022-08-18T13:45:22;23.20;99.90
25170;DHT22;13129;48.012;10.352;2022-08-18T13:47:49;23.20;99.90
25170;DHT22;13129;48.012;10.352;2022-08-18T13:50:15;23.30;99.90
25170;DHT22;13129;48.012;10.352;2022-08-18T13:52:42;23.40;99.90
25170;DHT22;13129;48.012;10.352;2022-08-18T13:55:14;23.60;99.90
25170;DHT22;13129;48.012;10.352;2022-08-18T13:57:41;23.60;99.90
25170;DHT22;13129;48.012;10.352;2022-08-18T14:00:14;23.60;99.90
25170;DHT22;13129;48.012;10.352;2022-08-18T14:02:41;23.50;99.90
25170;DHT22;13129;48.012;10.352;2022-08-18T14:05:07;23.50;99.90
25170;DHT22;13129;48.012;10.352;2022-08-18T14:07:34;23.50;99.90
25170;DHT22;13129;48.012;10.352;2022-08-18T14:10:02;23.50;99.90
25170;DHT22;13129;48.012;10.352;2022-08-18T14:12:28;23.40;99.90
25170;DHT22;13129;48.012;10.352;2022-08-18T14:14:54;23.30;99.90
25170;DHT22;13129;48.012;10.352;2022-08-18T14:17:21;23.20;99.90
25170;DHT22;13129;48.012;10.352;2022-08-18T14:19:47;23.20;99.90
25170;DHT22;13129;48.012;10.352;2022-08-18T14:22:31;23.20;99.90
25170;DHT22;13129;48.012;10.352;2022-08-18T14:25:15;23.10;99.90
25170;DHT22;13129;48.012;10.352;2022-08-18T14:27:59;23.00;99.90
25170;DHT22;13129;48.012;10.352;2022-08-18T14:30:25;22.80;99.90
25170;DHT22;13129;48.012;10.352;2022-08-18T14:32:51;22.80;99.90
25170;DHT22;13129;48.012;10.352;2022-08-18T14:35:18;22.80;99.90
25170;DHT22;13129;48.012;10.352;2022-08-18T14:37:44;22.70;99.90
25170;DHT22;13129;48.012;10.352;2022-08-18T14:40:10;22.70;99.90
25170;DHT22;13129;48.012;10.352;2022-08-18T14:42:36;22.70;99.90
25170;DHT22;13129;48.012;10.352;2022-08-18T14:45:04;22.60;99.90
25170;DHT22;13129;48.012;10.352;2022-08-18T14:47:30;22.50;99.90
25170;DHT22;13129;48.012;10.352;2022-08-18T14:49:57;22.40;99.90
25170;DHT22;13129;48.012;10.352;2022-08-18T14:52:24;22.30;99.90
25170;DHT22;13129;48.012;10.352;2022-08-18T14:54:52;22.30;99.90
25170;DHT22;13129;48.012;10.352;2022-08-18T14:57:18;22.20;99.90
25170;DHT22;13129;48.012;10.352;2022-08-18T14:59:44;22.10;99.90
25170;DHT22;13129;48.012;10.352;2022-08-18T15:02:11;22.00;99.90
25170;DHT22;13129;48.012;10.352;2022-08-18T15:04:37;22.00;99.90
25170;DHT22;13129;48.012;10.352;2022-08-18T15:07:03;21.90;99.90
25170;DHT22;13129;48.012;10.352;2022-08-18T15:09:29;21.80;99.90
25170;DHT22;13129;48.012;10.352;2022-08-18T15:11:56;21.70;99.90
25170;DHT22;13129;48.012;10.352;2022-08-18T15:14:25;21.50;99.90
25170;DHT22;13129;48.012;10.352;2022-08-18T15:16:51;21.40;99.90
25170;DHT22;13129;48.012;10.352;2022-08-18T15:19:17;21.20;99.90
25170;DHT22;13129;48.012;10.352;2022-08-18T15:21:43;21.10;99.90
25170;DHT22;13129;48.012;10.352;2022-08-18T15:24:27;21.10;99.90
25170;DHT22;13129;48.012;10.352;2022-08-18T15:27:11;20.90;99.90
25170;DHT22;13129;48.012;10.352;2022-08-18T15:29:36;20.70;99.90
25170;DHT22;13129;48.012;10.352;2022-08-18T15:32:02;20.70;99.90
25170;DHT22;13129;48.012;10.352;2022-08-18T15:34:29;20.60;99.90
25170;DHT22;13129;48.012;10.352;2022-08-18T15:36:55;20.50;99.90
25170;DHT22;13129;48.012;10.352;2022-08-18T15:39:22;20.50;99.90
25170;DHT22;13129;48.012;10.352;2022-08-18T15:41:48;20.40;99.90
25170;DHT22;13129;48.012;10.352;2022-08-18T15:44:18;20.30;99.90
25170;DHT22;13129;48.012;10.352;2022-08-18T15:46:44;20.30;99.90
25170;DHT22;13129;48.012;10.352;2022-08-18T15:49:11;20.20;99.90
25170;DHT22;13129;48.012;10.352;2022-08-18T15:51:38;20.10;99.90
25170;DHT22;13129;48.012;10.352;2022-08-18T15:54:06;20.10;99.90
25170;DHT22;13129;48.012;10.352;2022-08-18T15:56:32;20.10;99.90
25170;DHT22;13129;48.012;10.352;2022-08-18T15:58:58;20.10;99.90
25170;DHT22;13129;48.012;10.352;2022-08-18T16:01:25;20.10;99.90
25170;DHT22;13129;48.012;10.352;2022-08-18T16:03:51;20.10;99.90
25170;DHT22;13129;48.012;10.352;2022-08-18T16:06:22;20.10;99.90
25170;DHT22;13129;48.012;10.352;2022-08-18T16:08:49;20.10;99.90
25170;DHT22;13129;48.012;10.352;2022-08-18T16:11:16;20.10;99.90
25170;DHT22;13129;48.012;10.352;2022-08-18T16:13:43;20.10;99.90
25170;DHT22;13129;48.012;10.352;2022-08-18T16:16:10;20.10;99.90
25170;DHT22;13129;48.012;10.352;2022-08-18T16:18:37;20.10;99.90
25170;DHT22;13129;48.012;10.352;2022-08-18T16:21:07;20.10;99.90
25170;DHT22;13129;48.012;10.352;2022-08-18T16:23:40;20.10;99.90
25170;DHT22;13129;48.012;10.352;2022-08-18T16:26:07;20.10;99.90
25170;DHT22;13129;48.012;10.352;2022-08-18T16:28:33;20.10;99.90
25170;DHT22;13129;48.012;10.352;2022-08-18T16:31:00;20.10;99.90
25170;DHT22;13129;48.012;10.352;2022-08-18T16:33:26;20.10;99.90
25170;DHT22;13129;48.012;10.352;2022-08-18T16:35:51;20.00;99.90
25170;DHT22;13129;48.012;10.352;2022-08-18T16:38:18;20.00;99.90
25170;DHT22;13129;48.012;10.352;2022-08-18T16:40:44;20.00;99.90
25170;DHT22;13129;48.012;10.352;2022-08-18T16:43:11;19.90;99.90
25170;DHT22;13129;48.012;10.352;2022-08-18T16:45:38;19.90;99.90
25170;DHT22;13129;48.012;10.352;2022-08-18T16:48:06;19.80;99.90
25170;DHT22;13129;48.012;10.352;2022-08-18T16:50:33;19.80;99.90
25170;DHT22;13129;48.012;10.352;2022-08-18T16:52:59;19.80;99.90
25170;DHT22;13129;48.012;10.352;2022-08-18T16:55:25;19.70;99.90
25170;DHT22;13129;48.012;10.352;2022-08-18T16:57:51;19.70;99.90
25170;DHT22;13129;48.012;10.352;2022-08-18T17:00:35;19.60;99.90
25170;DHT22;13129;48.012;10.352;2022-08-18T17:03:19;19.60;99.90
25170;DHT22;13129;48.012;10.352;2022-08-18T17:06:10;19.60;99.90
25170;DHT22;13129;48.012;10.352;2022-08-18T17:08:36;19.50;99.90
25170;DHT22;13129;48.012;10.352;2022-08-18T17:11:04;19.50;99.90
25170;DHT22;13129;48.012;10.352;2022-08-18T17:13:31;19.50;99.90
25170;DHT22;13129;48.012;10.352;2022-08-18T17:15:57;19.40;99.90
25170;DHT22;13129;48.012;10.352;2022-08-18T17:18:23;19.40;99.90
25170;DHT22;13129;48.012;10.352;2022-08-18T17:20:50;19.40;99.90
25170;DHT22;13129;48.012;10.352;2022-08-18T17:23:16;19.40;99.90
25170;DHT22;13129;48.012;10.352;2022-08-18T17:25:42;19.40;99.90
25170;DHT22;13129;48.012;10.352;2022-08-18T17:28:08;19.30;99.90
25170;DHT22;13129;48.012;10.352;2022-08-18T17:30:46;19.30;99.90
25170;DHT22;13129;48.012;10.352;2022-08-18T17:33:22;19.30;99.90
25170;DHT22;13129;48.012;10.352;2022-08-18T17:35:51;19.20;99.90
25170;DHT22;13129;48.012;10.352;2022-08-18T17:38:49;19.20;99.90
25170;DHT22;13129;48.012;10.352;2022-08-18T17:41:19;19.20;99.90
25170;DHT22;13129;48.012;10.352;2022-08-18T17:43:46;19.20;99.90
25170;DHT22;13129;48.012;10.352;2022-08-18T17:46:21;19.20;99.90
25170;DHT22;13129;48.012;10.352;2022-08-18T17:51:47;19.20;99.90
25170;DHT22;13129;48.012;10.352;2022-08-18T17:54:23;19.20;99.90
25170;DHT22;13129;48.012;10.352;2022-08-18T17:57:33;19.20;99.90
25170;DHT22;13129;48.012;10.352;2022-08-18T18:00:22;19.10;99.90
25170;DHT22;13129;48.012;10.352;2022-08-18T18:02:47;19.20;99.90
25170;DHT22;13129;48.012;10.352;2022-08-18T18:05:19;19.10;99.90
25170;DHT22;13129;48.012;10.352;2022-08-18T18:21:16;18.60;99.90
25170;DHT22;13129;48.012;10.352;2022-08-18T18:30:40;18.40;99.90
25170;DHT22;13129;48.012;10.352;2022-08-18T18:36:44;18.20;99.90
25170;DHT22;13129;48.012;10.352;2022-08-18T18:39:30;18.20;99.90
25170;DHT22;13129;48.012;10.352;2022-08-18T18:42:27;18.10;99.90
25170;DHT22;13129;48.012;10.352;2022-08-18T18:44:58;18.00;99.90
25170;DHT22;13129;48.012;10.352;2022-08-18T18:55:24;17.70;99.90
25170;DHT22;13129;48.012;10.352;2022-08-18T18:58:22;17.70;99.90
25170;DHT22;13129;48.012;10.352;2022-08-18T19:00:57;17.60;99.90
25170;DHT22;13129;48.012;10.352;2022-08-18T19:03:37;17.60;99.90
25170;DHT22;13129;48.012;10.352;2022-08-18T19:06:26;17.60;99.90
25170;DHT22;13129;48.012;10.352;2022-08-18T19:14:16;17.50;99.90
25170;DHT22;13129;48.012;10.352;2022-08-18T19:19:54;17.60;99.90
25170;DHT22;13129;48.012;10.352;2022-08-18T19:23:20;17.60;99.90
25170;DHT22;13129;48.012;10.352;2022-08-18T19:25:27;17.60;99.90
25170;DHT22;13129;48.012;10.352;2022-08-18T19:30:48;17.70;99.90
25170;DHT22;13129;48.012;10.352;2022-08-18T19:33:21;17.70;99.90
25170;DHT22;13129;48.012;10.352;2022-08-18T19:36:05;17.70;99.90
25170;DHT22;13129;48.012;10.352;2022-08-18T19:38:41;17.70;99.90
25170;DHT22;13129;48.012;10.352;2022-08-18T19:41:34;17.70;99.90
25170;DHT22;13129;48.012;10.352;2022-08-18T19:46:56;17.60;99.90
25170;DHT22;13129;48.012;10.352;2022-08-18T19:49:34;17.60;99.90
25170;DHT22;13129;48.012;10.352;2022-08-18T20:00:52;17.60;99.90
25170;DHT22;13129;48.012;10.352;2022-08-18T20:06:44;17.60;99.90
25170;DHT22;13129;48.012;10.352;2022-08-18T20:14:27;17.50;99.90
25170;DHT22;13129;48.012;10.352;2022-08-18T20:17:19;17.50;99.90
25170;DHT22;13129;48.012;10.352;2022-08-18T20:22:28;17.50;99.90
25170;DHT22;13129;48.012;10.352;2022-08-18T20:25:07;17.50;99.90
25170;DHT22;13129;48.012;10.352;2022-08-18T20:27:42;17.50;99.90
25170;DHT22;13129;48.012;10.352;2022-08-18T20:30:27;17.50;99.90
25170;DHT22;13129;48.012;10.352;2022-08-18T20:33:09;17.50;99.90
25170;DHT22;13129;48.012;10.352;2022-08-18T20:38:50;17.60;99.90
25170;DHT22;13129;48.012;10.352;2022-08-18T20:41:40;17.60;99.90
25170;DHT22;13129;48.012;10.352;2022-08-18T20:44:47;17.70;99.90
25170;DHT22;13129;48.012;10.352;2022-08-18T20:53:30;17.50;99.90
25170;DHT22;13129;48.012;10.352;2022-08-18T20:58:40;17.40;99.90
25170;DHT22;13129;48.012;10.352;2022-08-18T21:01:11;17.50;99.90
25170;DHT22;13129;48.012;10.352;2022-08-18T21:03:45;17.50;99.90
25170;DHT22;13129;48.012;10.352;2022-08-18T21:06:13;17.40;99.90
25170;DHT22;13129;48.012;10.352;2022-08-18T21:08:46;17.40;99.90
25170;DHT22;13129;48.012;10.352;2022-08-18T21:11:29;17.40;99.90
25170;DHT22;13129;48.012;10.352;2022-08-18T21:13:59;17.30;99.90
25170;DHT22;13129;48.012;10.352;2022-08-18T21:18:55;17.30;99.90
25170;DHT22;13129;48.012;10.352;2022-08-18T21:21:30;17.30;99.90
25170;DHT22;13129;48.012;10.352;2022-08-18T21:23:59;17.30;99.90
25170;DHT22;13129;48.012;10.352;2022-08-18T21:26:27;17.30;99.90
25170;DHT22;13129;48.012;10.352;2022-08-18T21:28:56;17.40;99.90
25170;DHT22;13129;48.012;10.352;2022-08-18T21:31:29;17.40;99.90
25170;DHT22;13129;48.012;10.352;2022-08-18T21:34:50;17.50;99.90
25170;DHT22;13129;48.012;10.352;2022-08-18T21:37:00;17.40;99.90
25170;DHT22;13129;48.012;10.352;2022-08-18T21:39:28;17.40;99.90
25170;DHT22;13129;48.012;10.352;2022-08-18T21:41:56;17.40;99.90
25170;DHT22;13129;48.012;10.352;2022-08-18T21:44:37;17.30;99.90
25170;DHT22;13129;48.012;10.352;2022-08-18T21:47:32;17.30;99.90
25170;DHT22;13129;48.012;10.352;2022-08-18T21:52:27;17.30;99.90
25170;DHT22;13129;48.012;10.352;2022-08-18T21:54:58;17.30;99.90
25170;DHT22;13129;48.012;10.352;2022-08-18T21:57:28;17.30;99.90
25170;DHT22;13129;48.012;10.352;2022-08-18T22:00:25;17.30;99.90
25170;DHT22;13129;48.012;10.352;2022-08-18T22:03:10;17.40;99.90
25170;DHT22;13129;48.012;10.352;2022-08-18T22:05:42;17.40;99.90
25170;DHT22;13129;48.012;10.352;2022-08-18T22:08:18;17.40;99.90
25170;DHT22;13129;48.012;10.352;2022-08-18T22:11:45;17.40;99.90
25170;DHT22;13129;48.012;10.352;2022-08-18T22:16:43;17.40;99.90
25170;DHT22;13129;48.012;10.352;2022-08-18T22:19:11;17.30;99.90
25170;DHT22;13129;48.012;10.352;2022-08-18T22:22:05;17.40;99.90
25170;DHT22;13129;48.012;10.352;2022-08-18T22:24:56;17.50;99.90
25170;DHT22;13129;48.012;10.352;2022-08-18T22:27:23;17.40;99.90
25170;DHT22;13129;48.012;10.352;2022-08-18T22:29:55;17.40;99.90
25170;DHT22;13129;48.012;10.352;2022-08-18T22:32:33;17.50;99.90
25170;DHT22;13129;48.012;10.352;2022-08-18T22:35:00;17.40;99.90
25170;DHT22;13129;48.012;10.352;2022-08-18T22:37:30;17.50;99.90
25170;DHT22;13129;48.012;10.352;2022-08-18T22:40:06;17.40;99.90
25170;DHT22;13129;48.012;10.352;2022-08-18T22:42:36;17.40;99.90
25170;DHT22;13129;48.012;10.352;2022-08-18T22:45:05;17.40;99.90
25170;DHT22;13129;48.012;10.352;2022-08-18T22:47:32;17.40;99.90
25170;DHT22;13129;48.012;10.352;2022-08-18T22:49:59;17.40;99.90
25170;DHT22;13129;48.012;10.352;2022-08-18T22:52:26;17.30;99.90
25170;DHT22;13129;48.012;10.352;2022-08-18T22:54:53;17.30;99.90
25170;DHT22;13129;48.012;10.352;2022-08-18T22:57:19;17.30;99.90
25170;DHT22;13129;48.012;10.352;2022-08-18T22:59:45;17.30;99.90
